sensor_id;sensor_type;location;lat;lon;timestamp;P1;durP1;ratioP1;P2;durP2;ratioP2
25107;SDS011;13090;53.422;7.670;2024-01-16T00:04:20;1.50;;;0.80;;
25107;SDS011;13090;53.422;7.670;2024-01-16T00:10:01;4.13;;;0.82;;
25107;SDS011;13090;53.422;7.670;2024-01-16T00:15:41;4.65;;;1.00;;
25107;SDS011;13090;53.422;7.670;2024-01-16T00:21:23;4.25;;;1.40;;
25107;SDS011;13090;53.422;7.670;2024-01-16T00:27:03;3.88;;;1.10;;
25107;SDS011;13090;53.422;7.670;2024-01-16T00:32:48;4.43;;;1.13;;
25107;SDS011;13090;53.422;7.670;2024-01-16T00:38:29;3.88;;;1.10;;
25107;SDS011;13090;53.422;7.670;2024-01-16T00:44:12;3.75;;;1.10;;
25107;SDS011;13090;53.422;7.670;2024-01-16T00:49:52;6.78;;;1.02;;
25107;SDS011;13090;53.422;7.670;2024-01-16T00:55:34;5.50;;;1.25;;
25107;SDS011;13090;53.422;7.670;2024-01-16T01:01:15;5.13;;;0.90;;
25107;SDS011;13090;53.422;7.670;2024-01-16T01:06:55;4.43;;;1.17;;
25107;SDS011;13090;53.422;7.670;2024-01-16T01:12:37;2.70;;;0.80;;
25107;SDS011;13090;53.422;7.670;2024-01-16T01:18:17;3.45;;;0.90;;
25107;SDS011;13090;53.422;7.670;2024-01-16T01:23:57;10.35;;;1.02;;
25107;SDS011;13090;53.422;7.670;2024-01-16T01:29:39;10.43;;;1.08;;
25107;SDS011;13090;53.422;7.670;2024-01-16T01:35:19;4.95;;;0.85;;
25107;SDS011;13090;53.422;7.670;2024-01-16T01:41:00;8.48;;;1.48;;
25107;SDS011;13090;53.422;7.670;2024-01-16T01:46:41;5.90;;;0.85;;
25107;SDS011;13090;53.422;7.670;2024-01-16T01:52:22;4.88;;;0.95;;
25107;SDS011;13090;53.422;7.670;2024-01-16T01:58:03;7.72;;;1.02;;
25107;SDS011;13090;53.422;7.670;2024-01-16T02:03:46;4.95;;;1.00;;
25107;SDS011;13090;53.422;7.670;2024-01-16T02:09:26;6.38;;;0.75;;
25107;SDS011;13090;53.422;7.670;2024-01-16T02:15:07;7.15;;;0.90;;
25107;SDS011;13090;53.422;7.670;2024-01-16T02:20:49;3.75;;;1.20;;
25107;SDS011;13090;53.422;7.670;2024-01-16T02:26:31;5.43;;;1.10;;
25107;SDS011;13090;53.422;7.670;2024-01-16T02:32:12;5.45;;;1.15;;
25107;SDS011;13090;53.422;7.670;2024-01-16T02:37:53;4.10;;;0.85;;
25107;SDS011;13090;53.422;7.670;2024-01-16T02:43:35;7.03;;;1.10;;
25107;SDS011;13090;53.422;7.670;2024-01-16T02:49:15;11.88;;;1.27;;
25107;SDS011;13090;53.422;7.670;2024-01-16T02:54:55;5.55;;;1.00;;
25107;SDS011;13090;53.422;7.670;2024-01-16T03:00:37;8.95;;;1.33;;
25107;SDS011;13090;53.422;7.670;2024-01-16T03:06:21;11.68;;;1.83;;
25107;SDS011;13090;53.422;7.670;2024-01-16T03:12:02;5.00;;;1.08;;
25107;SDS011;13090;53.422;7.670;2024-01-16T03:17:44;11.02;;;1.35;;
25107;SDS011;13090;53.422;7.670;2024-01-16T03:23:25;9.38;;;1.45;;
25107;SDS011;13090;53.422;7.670;2024-01-16T03:29:05;5.68;;;1.23;;
25107;SDS011;13090;53.422;7.670;2024-01-16T03:34:47;9.15;;;1.38;;
25107;SDS011;13090;53.422;7.670;2024-01-16T03:40:27;8.70;;;1.35;;
25107;SDS011;13090;53.422;7.670;2024-01-16T03:46:09;7.57;;;1.10;;
25107;SDS011;13090;53.422;7.670;2024-01-16T03:51:52;7.93;;;1.02;;
25107;SDS011;13090;53.422;7.670;2024-01-16T03:57:32;6.85;;;1.20;;
25107;SDS011;13090;53.422;7.670;2024-01-16T04:03:13;5.55;;;1.08;;
25107;SDS011;13090;53.422;7.670;2024-01-16T04:08:57;8.35;;;1.10;;
25107;SDS011;13090;53.422;7.670;2024-01-16T04:14:37;5.65;;;1.45;;
25107;SDS011;13090;53.422;7.670;2024-01-16T04:20:17;13.73;;;1.60;;
25107;SDS011;13090;53.422;7.670;2024-01-16T04:25:59;8.35;;;1.40;;
25107;SDS011;13090;53.422;7.670;2024-01-16T04:31:39;7.40;;;1.45;;
25107;SDS011;13090;53.422;7.670;2024-01-16T04:37:20;5.90;;;1.08;;
25107;SDS011;13090;53.422;7.670;2024-01-16T04:43:02;6.28;;;1.52;;
25107;SDS011;13090;53.422;7.670;2024-01-16T04:48:42;9.32;;;1.30;;
25107;SDS011;13090;53.422;7.670;2024-01-16T04:54:23;6.20;;;1.70;;
25107;SDS011;13090;53.422;7.670;2024-01-16T05:00:06;2.72;;;1.02;;
25107;SDS011;13090;53.422;7.670;2024-01-16T05:05:47;5.30;;;1.58;;
25107;SDS011;13090;53.422;7.670;2024-01-16T05:11:29;7.35;;;2.00;;
25107;SDS011;13090;53.422;7.670;2024-01-16T05:17:10;5.00;;;1.23;;
25107;SDS011;13090;53.422;7.670;2024-01-16T05:22:51;4.82;;;1.67;;
25107;SDS011;13090;53.422;7.670;2024-01-16T05:28:31;6.10;;;1.30;;
25107;SDS011;13090;53.422;7.670;2024-01-16T05:34:13;5.05;;;1.63;;
25107;SDS011;13090;53.422;7.670;2024-01-16T05:39:54;6.50;;;1.40;;
25107;SDS011;13090;53.422;7.670;2024-01-16T05:45:34;6.07;;;1.30;;
25107;SDS011;13090;53.422;7.670;2024-01-16T05:51:16;7.63;;;1.63;;
25107;SDS011;13090;53.422;7.670;2024-01-16T05:56:57;12.23;;;1.65;;
25107;SDS011;13090;53.422;7.670;2024-01-16T06:02:37;10.80;;;1.55;;
25107;SDS011;13090;53.422;7.670;2024-01-16T06:08:19;5.70;;;1.30;;
25107;SDS011;13090;53.422;7.670;2024-01-16T06:14:00;6.78;;;1.63;;
25107;SDS011;13090;53.422;7.670;2024-01-16T06:19:40;8.30;;;1.80;;
25107;SDS011;13090;53.422;7.670;2024-01-16T06:25:22;10.75;;;1.70;;
25107;SDS011;13090;53.422;7.670;2024-01-16T06:31:03;7.13;;;1.55;;
25107;SDS011;13090;53.422;7.670;2024-01-16T06:36:44;6.00;;;1.33;;
25107;SDS011;13090;53.422;7.670;2024-01-16T06:42:26;3.28;;;1.20;;
25107;SDS011;13090;53.422;7.670;2024-01-16T06:48:08;5.30;;;1.70;;
25107;SDS011;13090;53.422;7.670;2024-01-16T06:53:48;3.03;;;1.30;;
25107;SDS011;13090;53.422;7.670;2024-01-16T06:59:29;8.60;;;1.30;;
25107;SDS011;13090;53.422;7.670;2024-01-16T07:05:10;3.92;;;1.30;;
25107;SDS011;13090;53.422;7.670;2024-01-16T07:10:51;9.85;;;2.03;;
25107;SDS011;13090;53.422;7.670;2024-01-16T07:16:34;3.67;;;1.42;;
25107;SDS011;13090;53.422;7.670;2024-01-16T07:22:14;3.05;;;1.30;;
25107;SDS011;13090;53.422;7.670;2024-01-16T07:27:55;6.40;;;1.20;;
25107;SDS011;13090;53.422;7.670;2024-01-16T07:33:37;5.95;;;1.30;;
25107;SDS011;13090;53.422;7.670;2024-01-16T07:39:17;3.83;;;1.63;;
25107;SDS011;13090;53.422;7.670;2024-01-16T07:44:58;4.82;;;1.50;;
25107;SDS011;13090;53.422;7.670;2024-01-16T07:50:39;8.63;;;1.73;;
25107;SDS011;13090;53.422;7.670;2024-01-16T07:56:20;4.63;;;1.35;;
25107;SDS011;13090;53.422;7.670;2024-01-16T08:02:00;6.57;;;1.45;;
25107;SDS011;13090;53.422;7.670;2024-01-16T08:07:43;9.70;;;1.50;;
25107;SDS011;13090;53.422;7.670;2024-01-16T08:13:23;12.18;;;1.60;;
25107;SDS011;13090;53.422;7.670;2024-01-16T08:19:03;8.52;;;2.00;;
25107;SDS011;13090;53.422;7.670;2024-01-16T08:24:45;10.95;;;1.90;;
25107;SDS011;13090;53.422;7.670;2024-01-16T08:30:25;6.13;;;1.50;;
25107;SDS011;13090;53.422;7.670;2024-01-16T08:36:06;5.82;;;1.40;;
25107;SDS011;13090;53.422;7.670;2024-01-16T08:41:48;4.38;;;1.20;;
25107;SDS011;13090;53.422;7.670;2024-01-16T08:47:29;9.73;;;1.20;;
25107;SDS011;13090;53.422;7.670;2024-01-16T08:53:09;4.97;;;1.23;;
25107;SDS011;13090;53.422;7.670;2024-01-16T08:58:52;7.40;;;1.63;;
25107;SDS011;13090;53.422;7.670;2024-01-16T09:04:32;8.50;;;1.60;;
25107;SDS011;13090;53.422;7.670;2024-01-16T09:10:12;8.75;;;1.38;;
25107;SDS011;13090;53.422;7.670;2024-01-16T09:15:54;4.07;;;1.50;;
25107;SDS011;13090;53.422;7.670;2024-01-16T09:21:35;6.18;;;1.63;;
25107;SDS011;13090;53.422;7.670;2024-01-16T09:27:15;8.05;;;1.50;;
25107;SDS011;13090;53.422;7.670;2024-01-16T09:32:57;7.15;;;1.70;;
25107;SDS011;13090;53.422;7.670;2024-01-16T09:38:38;10.98;;;1.58;;
25107;SDS011;13090;53.422;7.670;2024-01-16T09:44:18;5.90;;;1.20;;
25107;SDS011;13090;53.422;7.670;2024-01-16T09:50:01;3.15;;;1.10;;
25107;SDS011;13090;53.422;7.670;2024-01-16T09:55:43;5.45;;;1.35;;
25107;SDS011;13090;53.422;7.670;2024-01-16T10:01:23;8.25;;;1.80;;
25107;SDS011;13090;53.422;7.670;2024-01-16T10:07:08;8.63;;;1.55;;
25107;SDS011;13090;53.422;7.670;2024-01-16T10:12:51;8.25;;;1.42;;
25107;SDS011;13090;53.422;7.670;2024-01-16T10:18:33;8.13;;;1.30;;
25107;SDS011;13090;53.422;7.670;2024-01-16T10:24:15;8.18;;;1.35;;
25107;SDS011;13090;53.422;7.670;2024-01-16T10:29:55;9.30;;;1.50;;
25107;SDS011;13090;53.422;7.670;2024-01-16T10:35:37;6.57;;;1.45;;
25107;SDS011;13090;53.422;7.670;2024-01-16T10:41:19;6.90;;;1.83;;
25107;SDS011;13090;53.422;7.670;2024-01-16T10:47:09;9.63;;;2.08;;
25107;SDS011;13090;53.422;7.670;2024-01-16T10:52:51;7.82;;;1.55;;
25107;SDS011;13090;53.422;7.670;2024-01-16T10:58:35;6.55;;;2.08;;
25107;SDS011;13090;53.422;7.670;2024-01-16T11:04:18;3.25;;;1.30;;
25107;SDS011;13090;53.422;7.670;2024-01-16T11:10:01;10.32;;;1.30;;
25107;SDS011;13090;53.422;7.670;2024-01-16T11:15:44;7.57;;;2.13;;
25107;SDS011;13090;53.422;7.670;2024-01-16T11:21:27;3.75;;;1.45;;
25107;SDS011;13090;53.422;7.670;2024-01-16T11:27:08;5.35;;;1.42;;
25107;SDS011;13090;53.422;7.670;2024-01-16T11:33:02;3.75;;;1.63;;
25107;SDS011;13090;53.422;7.670;2024-01-16T11:38:43;7.20;;;1.92;;
25107;SDS011;13090;53.422;7.670;2024-01-16T11:44:36;8.85;;;1.58;;
25107;SDS011;13090;53.422;7.670;2024-01-16T11:50:28;8.02;;;1.70;;
25107;SDS011;13090;53.422;7.670;2024-01-16T11:56:15;3.45;;;1.58;;
25107;SDS011;13090;53.422;7.670;2024-01-16T12:02:25;7.07;;;1.80;;
25107;SDS011;13090;53.422;7.670;2024-01-16T12:08:11;9.90;;;2.08;;
25107;SDS011;13090;53.422;7.670;2024-01-16T12:14:00;5.68;;;2.20;;
25107;SDS011;13090;53.422;7.670;2024-01-16T12:19:42;5.93;;;2.05;;
25107;SDS011;13090;53.422;7.670;2024-01-16T12:25:25;6.00;;;1.55;;
25107;SDS011;13090;53.422;7.670;2024-01-16T12:31:27;3.08;;;1.58;;
25107;SDS011;13090;53.422;7.670;2024-01-16T12:37:08;6.15;;;2.05;;
25107;SDS011;13090;53.422;7.670;2024-01-16T12:42:50;4.63;;;2.13;;
25107;SDS011;13090;53.422;7.670;2024-01-16T12:48:31;6.10;;;2.83;;
25107;SDS011;13090;53.422;7.670;2024-01-16T12:54:12;5.13;;;3.45;;
25107;SDS011;13090;53.422;7.670;2024-01-16T12:59:54;7.75;;;3.92;;
25107;SDS011;13090;53.422;7.670;2024-01-16T13:05:35;7.82;;;4.07;;
25107;SDS011;13090;53.422;7.670;2024-01-16T13:11:16;7.70;;;4.30;;
25107;SDS011;13090;53.422;7.670;2024-01-16T13:17:03;9.27;;;4.80;;
25107;SDS011;13090;53.422;7.670;2024-01-16T13:22:43;9.23;;;4.25;;
25107;SDS011;13090;53.422;7.670;2024-01-16T13:28:27;7.43;;;3.67;;
25107;SDS011;13090;53.422;7.670;2024-01-16T13:34:09;5.95;;;3.55;;
25107;SDS011;13090;53.422;7.670;2024-01-16T13:39:50;6.13;;;2.78;;
25107;SDS011;13090;53.422;7.670;2024-01-16T13:45:31;4.30;;;2.50;;
25107;SDS011;13090;53.422;7.670;2024-01-16T13:51:13;5.38;;;1.83;;
25107;SDS011;13090;53.422;7.670;2024-01-16T13:56:53;2.05;;;1.60;;
25107;SDS011;13090;53.422;7.670;2024-01-16T14:02:46;5.60;;;2.20;;
25107;SDS011;13090;53.422;7.670;2024-01-16T14:08:30;3.42;;;2.05;;
25107;SDS011;13090;53.422;7.670;2024-01-16T14:14:11;6.32;;;1.75;;
25107;SDS011;13090;53.422;7.670;2024-01-16T14:19:51;6.90;;;1.70;;
25107;SDS011;13090;53.422;7.670;2024-01-16T14:25:32;3.40;;;1.75;;
25107;SDS011;13090;53.422;7.670;2024-01-16T14:31:13;6.20;;;1.67;;
25107;SDS011;13090;53.422;7.670;2024-01-16T14:36:53;32.42;;;18.10;;
25107;SDS011;13090;53.422;7.670;2024-01-16T14:42:35;6.65;;;4.53;;
25107;SDS011;13090;53.422;7.670;2024-01-16T14:48:16;8.35;;;4.80;;
25107;SDS011;13090;53.422;7.670;2024-01-16T14:53:57;5.68;;;3.58;;
25107;SDS011;13090;53.422;7.670;2024-01-16T14:59:38;8.05;;;3.30;;
25107;SDS011;13090;53.422;7.670;2024-01-16T15:05:19;8.57;;;3.85;;
25107;SDS011;13090;53.422;7.670;2024-01-16T15:11:00;12.60;;;4.32;;
25107;SDS011;13090;53.422;7.670;2024-01-16T15:16:43;14.05;;;5.38;;
25107;SDS011;13090;53.422;7.670;2024-01-16T15:22:23;12.25;;;5.30;;
25107;SDS011;13090;53.422;7.670;2024-01-16T15:28:03;10.15;;;3.53;;
25107;SDS011;13090;53.422;7.670;2024-01-16T15:33:46;11.52;;;4.38;;
25107;SDS011;13090;53.422;7.670;2024-01-16T15:39:27;10.98;;;4.40;;
25107;SDS011;13090;53.422;7.670;2024-01-16T15:45:10;14.43;;;4.95;;
25107;SDS011;13090;53.422;7.670;2024-01-16T15:50:51;8.88;;;4.63;;
25107;SDS011;13090;53.422;7.670;2024-01-16T15:56:32;11.38;;;5.90;;
25107;SDS011;13090;53.422;7.670;2024-01-16T16:02:12;11.43;;;5.40;;
25107;SDS011;13090;53.422;7.670;2024-01-16T16:07:55;12.88;;;5.60;;
25107;SDS011;13090;53.422;7.670;2024-01-16T16:13:35;11.60;;;5.72;;
25107;SDS011;13090;53.422;7.670;2024-01-16T16:19:16;8.05;;;5.43;;
25107;SDS011;13090;53.422;7.670;2024-01-16T16:24:59;15.63;;;6.15;;
25107;SDS011;13090;53.422;7.670;2024-01-16T16:30:39;19.15;;;8.95;;
25107;SDS011;13090;53.422;7.670;2024-01-16T16:36:20;20.23;;;13.02;;
25107;SDS011;13090;53.422;7.670;2024-01-16T16:42:02;17.50;;;7.53;;
25107;SDS011;13090;53.422;7.670;2024-01-16T16:47:43;13.00;;;5.68;;
25107;SDS011;13090;53.422;7.670;2024-01-16T16:53:23;9.93;;;4.40;;
25107;SDS011;13090;53.422;7.670;2024-01-16T16:59:12;9.77;;;4.05;;
25107;SDS011;13090;53.422;7.670;2024-01-16T17:04:53;8.73;;;4.43;;
25107;SDS011;13090;53.422;7.670;2024-01-16T17:10:33;11.70;;;4.63;;
25107;SDS011;13090;53.422;7.670;2024-01-16T17:16:15;8.00;;;3.90;;
25107;SDS011;13090;53.422;7.670;2024-01-16T17:21:56;9.10;;;3.80;;
25107;SDS011;13090;53.422;7.670;2024-01-16T17:27:36;6.10;;;2.90;;
25107;SDS011;13090;53.422;7.670;2024-01-16T17:33:21;12.55;;;3.50;;
25107;SDS011;13090;53.422;7.670;2024-01-16T17:39:01;9.27;;;2.92;;
25107;SDS011;13090;53.422;7.670;2024-01-16T17:44:48;7.28;;;3.58;;
25107;SDS011;13090;53.422;7.670;2024-01-16T17:50:31;21.52;;;13.98;;
25107;SDS011;13090;53.422;7.670;2024-01-16T17:56:11;11.15;;;4.88;;
25107;SDS011;13090;53.422;7.670;2024-01-16T18:01:51;25.27;;;12.23;;
25107;SDS011;13090;53.422;7.670;2024-01-16T18:07:33;18.20;;;8.10;;
25107;SDS011;13090;53.422;7.670;2024-01-16T18:13:14;8.15;;;4.00;;
25107;SDS011;13090;53.422;7.670;2024-01-16T18:18:54;8.40;;;3.67;;
25107;SDS011;13090;53.422;7.670;2024-01-16T18:24:36;10.20;;;4.20;;
25107;SDS011;13090;53.422;7.670;2024-01-16T18:30:16;10.85;;;4.78;;
25107;SDS011;13090;53.422;7.670;2024-01-16T18:35:57;8.23;;;4.40;;
25107;SDS011;13090;53.422;7.670;2024-01-16T18:41:39;10.15;;;5.57;;
25107;SDS011;13090;53.422;7.670;2024-01-16T18:47:25;7.25;;;5.03;;
25107;SDS011;13090;53.422;7.670;2024-01-16T18:53:05;10.18;;;5.90;;
25107;SDS011;13090;53.422;7.670;2024-01-16T18:58:47;11.52;;;5.20;;
25107;SDS011;13090;53.422;7.670;2024-01-16T19:04:28;16.20;;;7.28;;
25107;SDS011;13090;53.422;7.670;2024-01-16T19:10:08;12.43;;;6.28;;
25107;SDS011;13090;53.422;7.670;2024-01-16T19:15:50;17.25;;;7.72;;
25107;SDS011;13090;53.422;7.670;2024-01-16T19:21:30;12.30;;;7.88;;
25107;SDS011;13090;53.422;7.670;2024-01-16T19:27:11;12.35;;;7.10;;
25107;SDS011;13090;53.422;7.670;2024-01-16T19:32:53;10.77;;;7.25;;
25107;SDS011;13090;53.422;7.670;2024-01-16T19:38:33;10.65;;;6.57;;
25107;SDS011;13090;53.422;7.670;2024-01-16T19:44:14;11.98;;;6.40;;
25107;SDS011;13090;53.422;7.670;2024-01-16T19:49:56;13.80;;;7.90;;
25107;SDS011;13090;53.422;7.670;2024-01-16T19:55:36;11.60;;;6.85;;
25107;SDS011;13090;53.422;7.670;2024-01-16T20:01:17;16.05;;;7.93;;
25107;SDS011;13090;53.422;7.670;2024-01-16T20:06:59;13.70;;;6.85;;
25107;SDS011;13090;53.422;7.670;2024-01-16T20:12:39;13.95;;;8.05;;
25107;SDS011;13090;53.422;7.670;2024-01-16T20:18:19;11.63;;;7.10;;
25107;SDS011;13090;53.422;7.670;2024-01-16T20:24:01;14.52;;;7.57;;
25107;SDS011;13090;53.422;7.670;2024-01-16T20:29:42;13.50;;;7.30;;
25107;SDS011;13090;53.422;7.670;2024-01-16T20:35:22;14.70;;;9.10;;
25107;SDS011;13090;53.422;7.670;2024-01-16T20:41:06;18.15;;;8.93;;
25107;SDS011;13090;53.422;7.670;2024-01-16T20:46:46;15.25;;;8.52;;
25107;SDS011;13090;53.422;7.670;2024-01-16T20:52:26;11.30;;;8.27;;
25107;SDS011;13090;53.422;7.670;2024-01-16T20:58:08;13.48;;;9.20;;
25107;SDS011;13090;53.422;7.670;2024-01-16T21:03:48;12.00;;;8.10;;
25107;SDS011;13090;53.422;7.670;2024-01-16T21:09:29;12.00;;;8.50;;
25107;SDS011;13090;53.422;7.670;2024-01-16T21:15:11;13.82;;;8.77;;
25107;SDS011;13090;53.422;7.670;2024-01-16T21:20:51;15.38;;;8.25;;
25107;SDS011;13090;53.422;7.670;2024-01-16T21:26:31;13.30;;;8.10;;
25107;SDS011;13090;53.422;7.670;2024-01-16T21:32:13;23.38;;;9.18;;
25107;SDS011;13090;53.422;7.670;2024-01-16T21:37:53;13.70;;;8.98;;
25107;SDS011;13090;53.422;7.670;2024-01-16T21:43:34;14.02;;;8.95;;
25107;SDS011;13090;53.422;7.670;2024-01-16T21:49:16;12.98;;;9.30;;
25107;SDS011;13090;53.422;7.670;2024-01-16T21:54:56;14.23;;;9.93;;
25107;SDS011;13090;53.422;7.670;2024-01-16T22:00:39;13.02;;;7.90;;
25107;SDS011;13090;53.422;7.670;2024-01-16T22:06:20;14.52;;;8.77;;
25107;SDS011;13090;53.422;7.670;2024-01-16T22:12:01;15.02;;;10.05;;
25107;SDS011;13090;53.422;7.670;2024-01-16T22:17:42;16.83;;;10.18;;
25107;SDS011;13090;53.422;7.670;2024-01-16T22:23:24;19.15;;;10.55;;
25107;SDS011;13090;53.422;7.670;2024-01-16T22:29:04;16.30;;;9.73;;
25107;SDS011;13090;53.422;7.670;2024-01-16T22:34:44;18.92;;;10.07;;
25107;SDS011;13090;53.422;7.670;2024-01-16T22:40:26;15.65;;;10.02;;
25107;SDS011;13090;53.422;7.670;2024-01-16T22:46:06;13.25;;;8.65;;
25107;SDS011;13090;53.422;7.670;2024-01-16T22:51:46;18.27;;;9.65;;
25107;SDS011;13090;53.422;7.670;2024-01-16T22:57:28;18.80;;;9.82;;
25107;SDS011;13090;53.422;7.670;2024-01-16T23:03:09;17.15;;;9.70;;
25107;SDS011;13090;53.422;7.670;2024-01-16T23:08:49;15.32;;;8.63;;
25107;SDS011;13090;53.422;7.670;2024-01-16T23:14:31;15.40;;;9.60;;
25107;SDS011;13090;53.422;7.670;2024-01-16T23:20:11;16.73;;;10.02;;
25107;SDS011;13090;53.422;7.670;2024-01-16T23:25:52;15.50;;;10.13;;
25107;SDS011;13090;53.422;7.670;2024-01-16T23:31:33;15.48;;;10.40;;
25107;SDS011;13090;53.422;7.670;2024-01-16T23:37:14;16.45;;;8.40;;
25107;SDS011;13090;53.422;7.670;2024-01-16T23:42:54;17.98;;;9.88;;
25107;SDS011;13090;53.422;7.670;2024-01-16T23:48:36;18.63;;;9.90;;
25107;SDS011;13090;53.422;7.670;2024-01-16T23:54:17;14.52;;;8.82;;
25107;SDS011;13090;53.422;7.670;2024-01-16T23:59:57;15.90;;;9.93;;
